Dublin, Ireland
Current Conditions -  °F | °C
As of 6:00 PM on Monday 26 Jan 2015 (Local Time) from EIDW Reporting Station
Broken Clouds Broken Clouds  
Wind Chill:   Ceiling: 3100
Heat Index:   Visibility: 6mi
Dew Point:   Wind: 12mph
Humidity: 87%   Direction: 260°W
Pressure: 30.39"   Gusts: NA
Location:  53.33°N, 6.25°W
Report Text: EIDW 261800Z 26010KT 9999 FEW016 SCT025 BKN031 05/03 Q1029 NOSIG
Loading
Personal Weather Stations






























Interactive Weather Map New forecast layout! Learn more

10-Day Weather Forecast

Advertisements
Track Severe Weather on mobile